Time,TemperatureF,DewpointF,PressureIn,WindDirection,WindDirectionDegrees,WindSpeedMPH,WindSpeedGustMPH,Humidity,HourlyPrecipIn,Conditions,Clouds,dailyrainin,SoftwareType,DateUTC
2013-08-06 00:01:00,80.6,78.1,29.93,NE,45,0.0,0.0,92,0.00,BKN,,0.00,WeatherDisplay:10.37,2013-08-06 04:01:00,
2013-08-06 00:02:00,80.4,78.2,29.93,NE,45,0.0,0.0,93,0.00,BKN,,0.00,WeatherDisplay:10.37,2013-08-06 04:02:00,
2013-08-06 00:07:00,80.4,77.9,29.94,NE,45,0.0,0.0,92,0.00,BKN,,0.00,WeatherDisplay:10.37,2013-08-06 04:07:00,
2013-08-06 00:12:00,80.4,78.2,29.94,NE,45,0.0,0.0,93,0.00,BKN,,0.00,WeatherDisplay:10.37,2013-08-06 04:12:00,
2013-08-06 00:17:00,80.4,78.5,29.94,NE,45,0.0,0.0,94,0.00,BKN,,0.00,WeatherDisplay:10.37,2013-08-06 04:17:00,
2013-08-06 00:22:00,80.4,78.5,29.94,NE,45,0.0,0.0,94,0.00,BKN,,0.00,WeatherDisplay:10.37,2013-08-06 04:22:00,
2013-08-06 00:27:00,80.2,78.4,29.93,NE,45,0.0,0.0,94,0.00,BKN,,0.00,WeatherDisplay:10.37,2013-08-06 04:27:00,
2013-08-06 00:32:00,80.2,78.4,29.94,NE,45,0.0,0.0,94,0.00,BKN,,0.00,WeatherDisplay:10.37,2013-08-06 04:32:00,
2013-08-06 00:37:00,80.2,78.4,29.94,NE,45,0.0,0.0,94,0.00,BKN,,0.00,WeatherDisplay:10.37,2013-08-06 04:37:00,
2013-08-06 00:42:00,80.2,78.4,29.94,NE,45,0.0,0.0,94,0.00,BKN,,0.00,WeatherDisplay:10.37,2013-08-06 04:42:00,
2013-08-06 00:47:00,80.2,78.4,29.94,East,90,0.0,1.2,94,0.00,BKN,,0.00,WeatherDisplay:10.37,2013-08-06 04:47:00,
2013-08-06 00:52:00,80.4,78.5,29.94,East,90,0.0,0.0,94,0.00,BKN,,0.00,WeatherDisplay:10.37,2013-08-06 04:52:00,
2013-08-06 00:57:00,80.4,78.5,29.94,East,90,0.0,0.0,94,0.00,BKN,,0.00,WeatherDisplay:10.37,2013-08-06 04:57:00,
2013-08-06 01:02:00,80.2,78.0,29.94,SE,135,0.0,0.0,93,0.00,BKN,,0.00,WeatherDisplay:10.37,2013-08-06 05:02:00,
2013-08-06 01:07:00,80.2,78.0,29.94,SE,135,0.0,0.0,93,0.00,BKN,,0.00,WeatherDisplay:10.37,2013-08-06 05:07:00,
2013-08-06 01:12:00,79.9,77.7,29.94,SE,135,0.0,0.0,93,0.00,BKN,,0.00,WeatherDisplay:10.37,2013-08-06 05:12:00,
2013-08-06 01:17:00,79.9,77.7,29.93,SE,135,0.0,0.0,93,0.00,SCT,,0.00,WeatherDisplay:10.37,2013-08-06 05:17:00,
2013-08-06 01:22:00,79.5,77.3,29.93,SE,135,0.0,0.0,93,0.00,SCT,,0.00,WeatherDisplay:10.37,2013-08-06 05:22:00,
2013-08-06 01:27:00,79.3,77.1,29.93,SE,135,0.0,0.0,93,0.00,SCT,,0.00,WeatherDisplay:10.37,2013-08-06 05:27:00,
2013-08-06 01:32:00,79.2,77.0,29.93,SE,135,0.0,0.0,93,0.00,SCT,,0.00,WeatherDisplay:10.37,2013-08-06 05:32:00,
2013-08-06 01:37:00,79.2,77.3,29.93,SE,135,0.0,0.0,94,0.00,SCT,,0.00,WeatherDisplay:10.37,2013-08-06 05:37:00,
2013-08-06 01:42:00,78.8,76.9,29.92,SE,135,0.0,0.0,94,0.00,SCT,,0.00,WeatherDisplay:10.37,2013-08-06 05:42:00,
2013-08-06 01:47:00,78.6,76.7,29.92,SE,135,0.0,0.0,94,0.00,SCT,,0.00,WeatherDisplay:10.37,2013-08-06 05:47:00,
2013-08-06 01:52:00,78.4,76.6,29.92,SE,135,0.0,0.0,94,0.00,SCT,,0.00,WeatherDisplay:10.37,2013-08-06 05:52:00,
2013-08-06 01:57:00,78.4,76.6,29.92,SE,135,0.0,0.0,94,0.00,SCT,,0.00,WeatherDisplay:10.37,2013-08-06 05:57:00,
2013-08-06 02:02:00,78.3,76.4,29.91,SE,135,0.0,0.0,94,0.00,SCT,,0.00,WeatherDisplay:10.37,2013-08-06 06:02:00,
2013-08-06 02:07:00,78.1,76.2,29.91,SE,135,0.0,0.0,94,0.00,SCT,,0.00,WeatherDisplay:10.37,2013-08-06 06:07:00,
2013-08-06 02:12:00,77.9,76.0,29.90,SE,135,0.0,0.0,94,0.00,SCT,,0.00,WeatherDisplay:10.37,2013-08-06 06:12:00,
2013-08-06 02:16:00,77.9,76.4,29.90,SE,135,0.0,0.0,95,0.00,SCT,,0.00,WeatherDisplay:10.37,2013-08-06 06:16:00,
2013-08-06 02:21:00,77.7,76.2,29.90,SE,135,0.0,0.0,95,0.00,SCT,,0.00,WeatherDisplay:10.37,2013-08-06 06:21:00,
2013-08-06 02:26:00,77.7,76.2,29.90,SE,135,0.0,0.0,95,0.00,SCT,,0.00,WeatherDisplay:10.37,2013-08-06 06:26:00,
2013-08-06 02:31:00,77.5,76.0,29.90,SE,135,0.0,0.0,95,0.00,SCT,,0.00,WeatherDisplay:10.37,2013-08-06 06:31:00,
2013-08-06 02:36:00,77.4,75.8,29.89,SE,135,0.0,0.0,95,0.00,SCT,,0.00,WeatherDisplay:10.37,2013-08-06 06:36:00,
2013-08-06 02:41:00,77.4,75.8,29.89,SE,135,0.0,0.0,95,0.00,SCT,,0.00,WeatherDisplay:10.37,2013-08-06 06:41:00,
2013-08-06 02:46:00,77.4,75.8,29.89,SE,135,0.0,0.0,95,0.00,BKN,,0.00,WeatherDisplay:10.37,2013-08-06 06:46:00,
2013-08-06 02:51:00,77.5,76.0,29.89,SE,135,0.0,0.0,95,0.00,BKN,,0.00,WeatherDisplay:10.37,2013-08-06 06:51:00,
2013-08-06 02:56:00,77.4,75.8,29.89,SE,135,0.0,0.0,95,0.00,BKN,,0.00,WeatherDisplay:10.37,2013-08-06 06:56:00,
2013-08-06 03:01:00,77.2,75.6,29.89,SE,135,0.0,0.0,95,0.00,BKN,,0.00,WeatherDisplay:10.37,2013-08-06 07:01:00,
2013-08-06 03:06:00,77.2,76.0,29.89,SE,135,0.0,0.0,96,0.00,BKN,,0.00,WeatherDisplay:10.37,2013-08-06 07:06:00,
2013-08-06 03:11:00,77.4,76.1,29.88,SE,135,0.0,0.0,96,0.00,BKN,,0.00,WeatherDisplay:10.37,2013-08-06 07:11:00,
2013-08-06 03:16:00,77.4,76.1,29.88,SE,135,0.0,0.0,96,0.00,BKN,,0.00,WeatherDisplay:10.37,2013-08-06 07:16:00,
2013-08-06 03:21:00,77.4,76.1,29.88,SE,135,0.0,0.0,96,0.00,BKN,,0.00,WeatherDisplay:10.37,2013-08-06 07:21:00,
2013-08-06 03:26:00,77.2,76.0,29.88,SE,135,0.0,0.0,96,0.00,BKN,,0.00,WeatherDisplay:10.37,2013-08-06 07:26:00,
2013-08-06 03:31:00,77.0,75.8,29.88,SE,135,0.0,0.0,96,0.00,BKN,,0.00,WeatherDisplay:10.37,2013-08-06 07:31:00,
2013-08-06 03:36:00,77.0,75.8,29.88,SE,135,0.0,0.0,96,0.00,BKN,,0.00,WeatherDisplay:10.37,2013-08-06 07:36:00,
2013-08-06 03:41:00,77.2,76.0,29.88,SE,135,0.0,0.0,96,0.00,BKN,,0.00,WeatherDisplay:10.37,2013-08-06 07:41:00,
2013-08-06 03:46:00,77.2,76.0,29.88,SE,135,0.0,0.0,96,0.00,BKN,,0.00,WeatherDisplay:10.37,2013-08-06 07:46:00,
2013-08-06 03:51:00,77.2,76.0,29.88,SE,135,0.0,0.0,96,0.00,BKN,,0.00,WeatherDisplay:10.37,2013-08-06 07:51:00,
2013-08-06 03:56:00,77.2,76.0,29.88,SE,135,0.0,0.0,96,0.00,BKN,,0.00,WeatherDisplay:10.37,2013-08-06 07:56:00,
2013-08-06 04:01:00,76.8,75.6,29.88,SE,135,0.0,0.0,96,0.00,BKN,,0.00,WeatherDisplay:10.37,2013-08-06 08:01:00,
2013-08-06 04:06:00,76.6,75.4,29.88,SE,135,0.0,0.0,96,0.00,BKN,,0.00,WeatherDisplay:10.37,2013-08-06 08:06:00,
2013-08-06 04:11:00,76.6,75.4,29.88,SE,135,0.0,0.0,96,0.00,BKN,,0.00,WeatherDisplay:10.37,2013-08-06 08:11:00,
2013-08-06 04:16:00,76.6,75.4,29.88,SE,135,0.0,0.0,96,0.00,BKN,,0.00,WeatherDisplay:10.37,2013-08-06 08:16:00,
2013-08-06 04:21:00,76.5,75.2,29.88,SE,135,0.0,0.0,96,0.00,BKN,,0.00,WeatherDisplay:10.37,2013-08-06 08:21:00,
2013-08-06 04:26:00,76.3,75.1,29.88,SE,135,0.0,0.0,96,0.00,BKN,,0.00,WeatherDisplay:10.37,2013-08-06 08:26:00,
2013-08-06 04:31:00,76.3,75.1,29.87,SE,135,0.0,0.0,96,0.00,BKN,,0.00,WeatherDisplay:10.37,2013-08-06 08:31:00,
2013-08-06 04:36:00,76.3,75.1,29.87,SE,135,0.0,0.0,96,0.00,BKN,,0.00,WeatherDisplay:10.37,2013-08-06 08:36:00,
2013-08-06 04:41:00,76.3,75.1,29.88,SE,135,0.0,0.0,96,0.00,BKN,,0.00,WeatherDisplay:10.37,2013-08-06 08:41:00,
2013-08-06 04:46:00,76.3,75.1,29.88,SE,135,0.0,0.0,96,0.00,BKN,,0.00,WeatherDisplay:10.37,2013-08-06 08:46:00,
2013-08-06 04:51:00,76.3,75.1,29.88,SE,135,0.0,0.0,96,0.00,BKN,,0.00,WeatherDisplay:10.37,2013-08-06 08:51:00,
2013-08-06 04:56:00,76.6,75.4,29.87,SE,135,0.0,0.0,96,0.00,BKN,,0.00,WeatherDisplay:10.37,2013-08-06 08:56:00,
2013-08-06 05:01:00,76.6,75.4,29.87,SE,135,0.0,0.0,96,0.00,BKN,,0.00,WeatherDisplay:10.37,2013-08-06 09:01:00,
2013-08-06 05:06:00,76.6,75.4,29.87,SE,135,0.0,0.0,96,0.00,BKN,,0.00,WeatherDisplay:10.37,2013-08-06 09:06:00,
2013-08-06 05:11:00,76.5,75.2,29.87,SE,135,0.0,0.0,96,0.00,BKN,,0.00,WeatherDisplay:10.37,2013-08-06 09:11:00,
2013-08-06 05:16:00,76.6,75.4,29.87,SE,135,0.0,0.0,96,0.00,SCT,,0.00,WeatherDisplay:10.37,2013-08-06 09:16:00,
2013-08-06 05:21:00,76.6,75.4,29.87,SE,135,0.0,0.0,96,0.00,SCT,,0.00,WeatherDisplay:10.37,2013-08-06 09:21:00,
2013-08-06 05:26:00,76.6,75.4,29.87,SE,135,0.0,0.0,96,0.00,SCT,,0.00,WeatherDisplay:10.37,2013-08-06 09:26:00,
2013-08-06 05:31:00,77.2,76.0,29.87,SE,135,0.0,0.0,96,0.00,SCT,,0.00,WeatherDisplay:10.37,2013-08-06 09:31:00,
2013-08-06 05:36:00,77.2,76.0,29.87,SE,135,0.0,0.0,96,0.00,SCT,,0.00,WeatherDisplay:10.37,2013-08-06 09:36:00,
2013-08-06 05:41:00,77.4,76.1,29.88,SE,135,0.0,0.0,96,0.00,SCT,,0.00,WeatherDisplay:10.37,2013-08-06 09:41:00,
2013-08-06 05:46:00,77.4,76.1,29.88,SE,135,0.0,0.0,96,0.00,SCT,,0.00,WeatherDisplay:10.37,2013-08-06 09:46:00,
2013-08-06 05:51:00,77.4,76.1,29.88,SE,135,0.0,0.0,96,0.00,SCT,,0.00,WeatherDisplay:10.37,2013-08-06 09:51:00,
2013-08-06 05:56:00,77.5,76.6,29.88,East,90,0.0,0.0,97,0.00,SCT,,0.00,WeatherDisplay:10.37,2013-08-06 09:56:00,
2013-08-06 06:01:00,77.5,76.6,29.88,East,90,0.0,0.0,97,0.00,SCT,,0.00,WeatherDisplay:10.37,2013-08-06 10:01:00,
2013-08-06 06:06:00,77.7,76.8,29.88,East,90,0.0,0.0,97,0.00,SCT,,0.00,WeatherDisplay:10.37,2013-08-06 10:06:00,
2013-08-06 06:11:00,77.9,77.0,29.88,East,90,0.0,0.0,97,0.00,SCT,,0.00,WeatherDisplay:10.37,2013-08-06 10:11:00,
2013-08-06 06:16:00,78.1,77.2,29.88,East,90,0.0,0.0,97,0.00,SCT,,0.00,WeatherDisplay:10.37,2013-08-06 10:16:00,
2013-08-06 06:21:00,78.4,77.5,29.88,NE,45,0.0,0.0,97,0.00,SCT,,0.00,WeatherDisplay:10.37,2013-08-06 10:21:00,
2013-08-06 06:26:00,78.4,77.5,29.89,NE,45,0.0,0.0,97,0.00,SCT,,0.00,WeatherDisplay:10.37,2013-08-06 10:26:00,
2013-08-06 06:31:00,78.4,77.5,29.89,NE,45,0.0,0.0,97,0.00,SCT,,0.00,WeatherDisplay:10.37,2013-08-06 10:31:00,
2013-08-06 06:36:00,78.4,77.5,29.89,NE,45,0.0,0.0,97,0.00,SCT,,0.00,WeatherDisplay:10.37,2013-08-06 10:36:00,
2013-08-06 06:41:00,78.4,77.5,29.89,NE,45,0.0,0.0,97,0.00,SCT,,0.00,WeatherDisplay:10.37,2013-08-06 10:41:00,
2013-08-06 06:46:00,78.6,77.7,29.89,NE,45,0.0,0.0,97,0.00,SCT,,0.00,WeatherDisplay:10.37,2013-08-06 10:46:00,
2013-08-06 06:51:00,78.4,77.5,29.90,NE,45,0.0,0.0,97,0.00,SCT,,0.00,WeatherDisplay:10.37,2013-08-06 10:51:00,
2013-08-06 06:56:00,78.4,77.5,29.89,NE,45,0.0,0.0,97,0.00,SCT,,0.00,WeatherDisplay:10.37,2013-08-06 10:56:00,
2013-08-06 07:01:00,78.4,77.5,29.90,East,90,0.0,1.4,97,0.00,SCT,,0.00,WeatherDisplay:10.37,2013-08-06 11:01:00,
2013-08-06 07:06:00,78.6,77.7,29.90,NE,45,0.2,2.8,97,0.00,SCT,,0.00,WeatherDisplay:10.37,2013-08-06 11:06:00,
2013-08-06 07:11:00,78.6,77.7,29.90,East,90,0.0,4.6,97,0.00,SCT,,0.00,WeatherDisplay:10.37,2013-08-06 11:11:00,
2013-08-06 07:16:00,78.6,77.7,29.90,East,90,0.0,0.0,97,0.00,SCT,,0.00,WeatherDisplay:10.37,2013-08-06 11:16:00,
2013-08-06 07:21:00,79.0,78.1,29.90,East,90,0.0,0.0,97,0.00,SCT,,0.00,WeatherDisplay:10.37,2013-08-06 11:21:00,
2013-08-06 07:26:00,79.0,78.1,29.90,East,90,0.0,0.0,97,0.00,SCT,,0.00,WeatherDisplay:10.37,2013-08-06 11:26:00,
2013-08-06 07:31:00,79.3,78.1,29.91,East,90,0.0,0.0,96,0.00,SCT,,0.00,WeatherDisplay:10.37,2013-08-06 11:31:00,
2013-08-06 07:36:00,79.3,78.1,29.91,East,90,0.0,0.0,96,0.00,BKN,,0.00,WeatherDisplay:10.37,2013-08-06 11:36:00,
2013-08-06 07:41:00,79.5,78.3,29.91,NE,45,0.0,0.0,96,0.00,BKN,,0.00,WeatherDisplay:10.37,2013-08-06 11:41:00,
2013-08-06 07:46:00,79.7,78.5,29.91,NE,45,0.0,0.0,96,0.00,BKN,,0.00,WeatherDisplay:10.37,2013-08-06 11:46:00,
2013-08-06 07:51:00,79.9,78.3,29.92,SE,135,0.0,0.0,95,0.00,BKN,,0.00,WeatherDisplay:10.37,2013-08-06 11:51:00,
2013-08-06 07:56:00,79.9,78.3,29.92,East,90,0.0,0.0,95,0.00,BKN,,0.00,WeatherDisplay:10.37,2013-08-06 11:56:00,
2013-08-06 08:01:00,80.2,78.7,29.92,SE,135,0.0,0.0,95,0.00,BKN,,0.00,WeatherDisplay:10.37,2013-08-06 12:01:00,
2013-08-06 08:06:00,80.2,78.4,29.92,East,90,0.0,0.0,94,0.00,BKN,,0.00,WeatherDisplay:10.37,2013-08-06 12:06:00,
2013-08-06 08:11:00,80.6,78.4,29.92,NE,45,0.0,0.0,93,0.00,BKN,,0.00,WeatherDisplay:10.37,2013-08-06 12:11:00,
2013-08-06 08:16:00,81.0,78.4,29.92,NE,45,0.0,0.0,92,0.00,BKN,,0.00,WeatherDisplay:10.37,2013-08-06 12:16:00,
2013-08-06 08:21:00,81.1,78.3,29.92,NE,45,0.0,0.0,91,0.00,BKN,,0.00,WeatherDisplay:10.37,2013-08-06 12:21:00,
2013-08-06 08:26:00,81.3,78.1,29.92,SE,135,0.0,0.0,90,0.00,BKN,,0.00,WeatherDisplay:10.37,2013-08-06 12:26:00,
2013-08-06 08:31:00,81.5,78.3,29.92,East,90,0.0,0.0,90,0.00,BKN,,0.00,WeatherDisplay:10.37,2013-08-06 12:31:00,
2013-08-06 08:36:00,82.0,78.8,29.92,SE,135,0.0,0.0,90,0.00,BKN,,0.00,WeatherDisplay:10.37,2013-08-06 12:36:00,
2013-08-06 08:41:00,82.2,78.7,29.92,East,90,0.0,0.0,89,0.00,BKN,,0.00,WeatherDisplay:10.37,2013-08-06 12:41:00,
2013-08-06 08:46:00,82.4,78.5,29.92,South,180,0.0,0.0,88,0.00,BKN,,0.00,WeatherDisplay:10.37,2013-08-06 12:46:00,
2013-08-06 08:51:00,82.6,78.3,29.92,NE,45,0.0,0.0,87,0.00,BKN,,0.00,WeatherDisplay:10.37,2013-08-06 12:51:00,
2013-08-06 08:56:00,82.8,78.1,29.92,NE,45,0.0,0.0,86,0.00,BKN,,0.00,WeatherDisplay:10.37,2013-08-06 12:56:00,
2013-08-06 09:01:00,83.1,78.5,29.92,East,90,0.0,0.0,86,0.00,BKN,,0.00,WeatherDisplay:10.37,2013-08-06 13:01:00,
2013-08-06 09:06:00,83.8,78.8,29.93,NE,45,0.0,0.0,85,0.00,BKN,,0.00,WeatherDisplay:10.37,2013-08-06 13:06:00,
2013-08-06 09:11:00,83.8,78.8,29.93,East,90,0.0,0.0,85,0.00,BKN,,0.00,WeatherDisplay:10.37,2013-08-06 13:11:00,
2013-08-06 09:16:00,84.0,78.7,29.93,SE,135,0.0,0.0,84,0.00,BKN,,0.00,WeatherDisplay:10.37,2013-08-06 13:16:00,
2013-08-06 09:21:00,84.6,78.8,29.93,SE,135,0.0,0.0,83,0.00,BKN,,0.00,WeatherDisplay:10.37,2013-08-06 13:21:00,
2013-08-06 09:26:00,84.6,78.8,29.93,SW,225,0.0,0.0,83,0.00,BKN,,0.00,WeatherDisplay:10.37,2013-08-06 13:26:00,
2013-08-06 09:31:00,84.7,79.0,29.93,West,270,0.0,0.0,83,0.00,BKN,,0.00,WeatherDisplay:10.37,2013-08-06 13:31:00,
2013-08-06 09:36:00,84.9,79.2,29.94,NE,45,0.0,0.0,83,0.00,BKN,,0.00,WeatherDisplay:10.37,2013-08-06 13:36:00,
2013-08-06 09:41:00,84.4,78.6,29.94,NE,45,0.0,0.0,83,0.00,BKN,,0.00,WeatherDisplay:10.37,2013-08-06 13:41:00,
2013-08-06 09:46:00,84.2,78.8,29.94,NE,45,0.0,0.0,84,0.00,BKN,,0.00,WeatherDisplay:10.37,2013-08-06 13:46:00,
2013-08-06 09:51:00,84.6,79.2,29.94,SE,135,0.0,0.0,84,0.00,BKN,,0.00,WeatherDisplay:10.37,2013-08-06 13:51:00,
2013-08-06 09:56:00,85.3,79.5,29.94,NE,45,0.0,0.0,83,0.00,BKN,,0.00,WeatherDisplay:10.37,2013-08-06 13:56:00,
2013-08-06 10:01:00,85.3,79.5,29.94,NE,45,0.0,0.0,83,0.00,BKN,,0.00,WeatherDisplay:10.37,2013-08-06 14:01:00,
2013-08-06 10:06:00,86.5,80.4,29.94,NE,45,0.0,0.0,82,0.00,BKN,,0.00,WeatherDisplay:10.37,2013-08-06 14:06:00,
2013-08-06 10:11:00,87.8,80.5,29.94,SE,135,0.0,0.0,79,0.00,BKN,,0.00,WeatherDisplay:10.37,2013-08-06 14:11:00,
2013-08-06 10:16:00,88.0,79.9,29.94,NE,45,0.0,0.0,77,0.00,BKN,,0.00,WeatherDisplay:10.37,2013-08-06 14:16:00,
2013-08-06 10:21:00,88.0,79.5,29.95,East,90,0.0,0.0,76,0.00,BKN,,0.00,WeatherDisplay:10.37,2013-08-06 14:21:00,
2013-08-06 10:26:00,88.3,80.2,29.95,NE,45,0.0,0.0,77,0.00,BKN,,0.00,WeatherDisplay:10.37,2013-08-06 14:26:00,
2013-08-06 10:31:00,88.5,80.0,29.95,NE,45,0.0,0.0,76,0.00,BKN,,0.00,WeatherDisplay:10.37,2013-08-06 14:31:00,
2013-08-06 10:36:00,88.3,80.2,29.95,NE,45,0.0,0.0,77,0.00,BKN,,0.00,WeatherDisplay:10.37,2013-08-06 14:36:00,
2013-08-06 10:41:00,90.9,81.4,29.95,SE,135,0.0,0.0,74,0.00,BKN,,0.00,WeatherDisplay:10.37,2013-08-06 14:41:00,
2013-08-06 10:46:00,91.9,82.5,29.95,NW,315,0.0,0.0,74,0.00,BKN,,0.00,WeatherDisplay:10.37,2013-08-06 14:46:00,
2013-08-06 10:51:00,92.5,80.8,29.96,SE,135,0.0,0.0,69,0.00,BKN,,0.00,WeatherDisplay:10.37,2013-08-06 14:51:00,
2013-08-06 10:56:00,92.1,81.4,29.96,NE,45,0.0,0.0,71,0.00,BKN,,0.00,WeatherDisplay:10.37,2013-08-06 14:56:00,
2013-08-06 11:01:00,92.3,81.1,29.96,NE,45,0.0,0.0,70,0.00,BKN,,0.00,WeatherDisplay:10.37,2013-08-06 15:01:00,
2013-08-06 11:06:00,93.6,81.9,29.95,NE,45,0.0,0.0,69,0.00,BKN,,0.00,WeatherDisplay:10.37,2013-08-06 15:06:00,
2013-08-06 11:11:00,93.2,81.5,29.95,NE,45,0.0,0.0,69,0.00,BKN,,0.00,WeatherDisplay:10.37,2013-08-06 15:11:00,
2013-08-06 11:16:00,92.8,81.2,29.95,East,90,0.0,0.0,69,0.00,BKN,,0.00,WeatherDisplay:10.37,2013-08-06 15:16:00,
2013-08-06 11:21:00,92.7,81.4,29.95,NE,45,0.0,0.0,70,0.00,BKN,,0.00,WeatherDisplay:10.37,2013-08-06 15:21:00,
2013-08-06 11:26:00,92.1,82.2,29.95,SE,135,0.0,0.0,73,0.00,BKN,,0.00,WeatherDisplay:10.37,2013-08-06 15:26:00,
2013-08-06 11:31:00,92.3,82.0,29.95,East,90,0.0,0.0,72,0.00,BKN,,0.00,WeatherDisplay:10.37,2013-08-06 15:31:00,
2013-08-06 11:36:00,92.7,82.3,29.95,East,90,0.0,0.0,72,0.00,BKN,,0.00,WeatherDisplay:10.37,2013-08-06 15:36:00,
2013-08-06 11:41:00,93.7,82.5,29.95,East,90,0.0,0.0,70,0.00,BKN,,0.00,WeatherDisplay:10.37,2013-08-06 15:41:00,
2013-08-06 11:46:00,93.2,82.4,29.95,East,90,0.0,0.0,71,0.00,BKN,,0.00,WeatherDisplay:10.37,2013-08-06 15:46:00,
2013-08-06 11:51:00,94.3,82.1,29.95,East,90,0.0,0.0,68,0.00,BKN,,0.00,WeatherDisplay:10.37,2013-08-06 15:51:00,
2013-08-06 11:56:00,94.8,81.2,29.95,NE,45,0.0,0.0,65,0.00,BKN,,0.00,WeatherDisplay:10.37,2013-08-06 15:56:00,
2013-08-06 12:01:00,93.7,82.0,29.95,NE,45,0.0,0.0,69,0.00,BKN,,0.00,WeatherDisplay:10.37,2013-08-06 16:01:00,
2013-08-06 12:06:00,94.8,81.7,29.95,SE,135,0.0,0.0,66,0.00,BKN,,0.00,WeatherDisplay:10.37,2013-08-06 16:06:00,
2013-08-06 12:11:00,96.1,81.9,29.95,NE,45,0.0,0.0,64,0.00,BKN,,0.00,WeatherDisplay:10.37,2013-08-06 16:11:00,
2013-08-06 12:16:00,96.8,83.1,29.95,South,180,0.0,0.0,65,0.00,BKN,,0.00,WeatherDisplay:10.37,2013-08-06 16:16:00,
2013-08-06 12:21:00,97.2,83.4,29.95,NE,45,0.0,0.0,65,0.00,BKN,,0.00,WeatherDisplay:10.37,2013-08-06 16:21:00,
2013-08-06 12:26:00,96.1,81.9,29.94,North,0,0.0,0.0,64,0.00,BKN,,0.00,WeatherDisplay:10.37,2013-08-06 16:26:00,
2013-08-06 12:31:00,95.0,80.9,29.94,NW,315,0.0,0.0,64,0.00,BKN,,0.00,WeatherDisplay:10.37,2013-08-06 16:31:00,
2013-08-06 12:35:00,95.5,81.9,29.94,East,90,0.0,0.0,65,0.00,BKN,,0.00,WeatherDisplay:10.37,2013-08-06 16:35:00,
2013-08-06 12:41:00,95.7,81.1,29.94,NE,45,0.0,0.0,63,0.00,BKN,,0.00,WeatherDisplay:10.37,2013-08-06 16:41:00,
2013-08-06 12:46:00,96.3,81.6,29.94,NE,45,0.0,0.0,63,0.00,BKN,,0.00,WeatherDisplay:10.37,2013-08-06 16:46:00,
2013-08-06 12:51:00,96.3,81.6,29.94,NE,45,0.0,0.0,63,0.00,BKN,,0.00,WeatherDisplay:10.37,2013-08-06 16:51:00,
2013-08-06 12:56:00,95.7,81.1,29.94,NE,45,0.0,0.0,63,0.00,BKN,,0.00,WeatherDisplay:10.37,2013-08-06 16:56:00,
2013-08-06 13:00:00,96.1,81.4,29.94,NE,45,0.0,0.0,63,0.00,BKN,,0.00,WeatherDisplay:10.37,2013-08-06 17:00:00,
2013-08-06 13:05:00,96.6,81.5,29.93,SE,135,0.0,0.0,62,0.00,BKN,,0.00,WeatherDisplay:10.37,2013-08-06 17:05:00,
2013-08-06 13:10:00,98.6,82.3,29.93,NE,45,0.0,0.0,60,0.00,BKN,,0.00,WeatherDisplay:10.37,2013-08-06 17:10:00,
2013-08-06 13:15:00,96.8,81.1,29.93,NE,45,0.0,0.0,61,0.00,BKN,,0.00,WeatherDisplay:10.37,2013-08-06 17:15:00,
2013-08-06 13:20:00,96.4,81.3,29.93,East,90,0.0,0.0,62,0.00,BKN,,0.00,WeatherDisplay:10.37,2013-08-06 17:20:00,
2013-08-06 13:25:00,95.4,80.8,29.93,NE,45,0.0,0.0,63,0.00,BKN,,0.00,WeatherDisplay:10.37,2013-08-06 17:25:00,
2013-08-06 13:27:00,95.4,80.8,29.93,NE,45,0.0,0.0,63,0.00,BKN,,0.00,WeatherDisplay:10.37,2013-08-06 17:27:00,
2013-08-06 13:32:00,94.8,81.2,29.93,SE,135,0.0,0.0,65,0.00,BKN,,0.00,WeatherDisplay:10.37,2013-08-06 17:32:00,
2013-08-06 13:37:00,94.8,81.7,29.93,East,90,0.0,0.0,66,0.00,BKN,,0.00,WeatherDisplay:10.37,2013-08-06 17:37:00,
2013-08-06 13:42:00,95.5,81.9,29.93,NE,45,7.3,11.5,65,0.00,BKN,,0.00,WeatherDisplay:10.37,2013-08-06 17:42:00,
2013-08-06 13:47:00,93.6,81.4,29.92,NE,45,2.9,5.8,68,0.00,BKN,,0.00,WeatherDisplay:10.37,2013-08-06 17:47:00,
2013-08-06 13:52:00,93.2,80.6,29.93,NE,45,0.4,4.6,67,0.00,BKN,,0.00,WeatherDisplay:10.37,2013-08-06 17:52:00,
2013-08-06 13:57:00,91.8,81.0,29.92,NE,45,1.7,4.6,71,0.00,BKN,,0.00,WeatherDisplay:10.37,2013-08-06 17:57:00,
2013-08-06 14:02:00,91.9,81.2,29.92,NE,45,0.9,4.6,71,0.00,BKN,,0.00,WeatherDisplay:10.37,2013-08-06 18:02:00,
2013-08-06 14:07:00,92.7,81.4,29.92,NE,45,0.0,4.6,70,0.00,BKN,,0.00,WeatherDisplay:10.37,2013-08-06 18:07:00,
2013-08-06 14:12:00,95.0,81.9,29.92,NE,45,3.8,3.8,66,0.00,BKN,,0.00,WeatherDisplay:10.37,2013-08-06 18:12:00,
2013-08-06 14:17:00,95.5,81.4,29.92,NE,45,2.8,5.8,64,0.00,BKN,,0.00,WeatherDisplay:10.37,2013-08-06 18:17:00,
2013-08-06 14:22:00,95.9,82.2,29.92,North,0,2.7,4.6,65,0.00,BKN,,0.00,WeatherDisplay:10.37,2013-08-06 18:22:00,
2013-08-06 14:27:00,95.4,80.8,29.92,NE,45,2.1,5.8,63,0.00,BKN,,0.00,WeatherDisplay:10.37,2013-08-06 18:27:00,
2013-08-06 14:32:00,95.5,81.4,29.92,East,90,0.6,4.6,64,0.00,BKN,,0.00,WeatherDisplay:10.37,2013-08-06 18:32:00,
2013-08-06 14:37:00,95.5,80.9,29.92,NE,45,2.1,2.8,63,0.00,BKN,,0.00,WeatherDisplay:10.37,2013-08-06 18:37:00,
2013-08-06 14:42:00,93.7,80.7,29.92,East,90,3.8,8.1,66,0.00,BKN,,0.00,WeatherDisplay:10.37,2013-08-06 18:42:00,
2013-08-06 14:47:00,93.6,80.0,29.92,North,0,0.8,5.8,65,0.00,BKN,,0.00,WeatherDisplay:10.37,2013-08-06 18:47:00,
2013-08-06 14:52:00,93.6,80.0,29.92,NE,45,0.7,6.9,65,0.00,BKN,,0.00,WeatherDisplay:10.37,2013-08-06 18:52:00,
2013-08-06 14:57:00,94.3,80.7,29.91,West,270,0.4,2.8,65,0.00,BKN,,0.00,WeatherDisplay:10.37,2013-08-06 18:57:00,
2013-08-06 15:02:00,93.4,80.3,29.91,NE,45,3.6,6.9,66,0.00,BKN,,0.00,WeatherDisplay:10.37,2013-08-06 19:02:00,
2013-08-06 15:07:00,92.3,79.8,29.91,NE,45,0.9,5.8,67,0.00,BKN,,0.00,WeatherDisplay:10.37,2013-08-06 19:07:00,
2013-08-06 15:12:00,91.4,79.8,29.91,NE,45,6.5,8.1,69,0.00,BKN,,0.00,WeatherDisplay:10.37,2013-08-06 19:12:00,
2013-08-06 15:17:00,90.1,79.5,29.91,East,90,7.1,11.2,71,0.00,BKN,,0.00,WeatherDisplay:10.37,2013-08-06 19:17:00,
2013-08-06 15:22:00,89.6,78.9,29.91,NE,45,5.7,11.5,71,0.00,BKN,,0.00,WeatherDisplay:10.37,2013-08-06 19:22:00,
2013-08-06 15:27:00,89.2,79.0,29.91,East,90,4.2,6.9,72,0.00,BKN,,0.00,WeatherDisplay:10.37,2013-08-06 19:27:00,
2013-08-06 15:32:00,89.4,79.6,29.91,NE,45,0.2,2.8,73,0.00,BKN,,0.00,WeatherDisplay:10.37,2013-08-06 19:32:00,
2013-08-06 15:37:00,89.4,79.2,29.92,East,90,2.0,2.3,72,0.00,BKN,,0.00,WeatherDisplay:10.37,2013-08-06 19:37:00,
2013-08-06 15:42:00,89.4,79.2,29.92,NE,45,1.0,2.8,72,0.00,BKN,,0.00,WeatherDisplay:10.37,2013-08-06 19:42:00,
2013-08-06 15:47:00,89.2,78.2,29.92,East,90,5.3,8.1,70,0.00,BKN,,0.00,WeatherDisplay:10.37,2013-08-06 19:47:00,
2013-08-06 15:52:00,89.2,78.6,29.91,North,0,2.7,8.1,71,0.00,BKN,,0.00,WeatherDisplay:10.37,2013-08-06 19:52:00,
2013-08-06 15:57:00,89.1,78.9,29.90,NE,45,2.3,2.8,72,0.00,BKN,,0.00,WeatherDisplay:10.37,2013-08-06 19:57:00,
2013-08-06 16:02:00,88.5,78.3,29.90,NE,45,0.4,2.8,72,0.00,BKN,,0.00,WeatherDisplay:10.37,2013-08-06 20:02:00,
2013-08-06 16:07:00,88.5,78.3,29.90,NE,45,0.3,2.3,72,0.00,BKN,,0.00,WeatherDisplay:10.37,2013-08-06 20:07:00,
2013-08-06 16:12:00,88.5,78.8,29.90,NE,45,0.5,2.8,73,0.00,BKN,,0.00,WeatherDisplay:10.37,2013-08-06 20:12:00,
2013-08-06 16:17:00,88.0,78.6,29.89,NE,45,2.7,5.8,74,0.00,BKN,,0.00,WeatherDisplay:10.37,2013-08-06 20:17:00,
2013-08-06 16:22:00,88.0,78.6,29.90,East,90,2.2,5.8,74,0.00,BKN,,0.00,WeatherDisplay:10.37,2013-08-06 20:22:00,
2013-08-06 16:27:00,88.2,78.4,29.90,NE,45,2.4,8.4,73,0.00,BKN,,0.00,WeatherDisplay:10.37,2013-08-06 20:27:00,
2013-08-06 16:32:00,88.2,79.2,29.90,East,90,0.1,12.7,75,0.00,BKN,,0.00,WeatherDisplay:10.37,2013-08-06 20:32:00,
2013-08-06 16:33:00,88.2,79.2,29.90,East,90,0.1,12.7,75,0.00,BKN,,0.00,WeatherDisplay:10.37,2013-08-06 20:33:00,
2013-08-06 16:38:00,88.2,79.2,29.90,NE,45,2.0,5.8,75,0.00,BKN,,0.00,WeatherDisplay:10.37,2013-08-06 20:38:00,
2013-08-06 16:43:00,88.2,78.4,29.90,NE,45,0.0,5.8,73,0.00,BKN,,0.00,WeatherDisplay:10.37,2013-08-06 20:43:00,
2013-08-06 16:48:00,88.2,78.8,29.91,NE,45,1.3,5.6,74,0.00,BKN,,0.00,WeatherDisplay:10.37,2013-08-06 20:48:00,
2013-08-06 16:53:00,87.6,78.3,29.91,East,90,1.9,5.8,74,0.00,BKN,,0.00,WeatherDisplay:10.37,2013-08-06 20:53:00,
2013-08-06 16:58:00,87.6,78.7,29.91,North,0,8.3,8.3,75,0.00,BKN,,0.00,WeatherDisplay:10.37,2013-08-06 20:58:00,
2013-08-06 17:03:00,87.4,78.5,29.92,NE,45,3.6,8.1,75,0.00,BKN,,0.00,WeatherDisplay:10.37,2013-08-06 21:03:00,
2013-08-06 17:08:00,87.6,78.3,29.92,East,90,1.0,4.6,74,0.00,BKN,,0.00,WeatherDisplay:10.37,2013-08-06 21:08:00,
2013-08-06 17:13:00,87.6,77.9,29.91,East,90,10.4,10.5,73,0.00,BKN,,0.00,WeatherDisplay:10.37,2013-08-06 21:13:00,
2013-08-06 17:18:00,87.6,77.5,29.91,NE,45,0.4,10.4,72,0.00,BKN,,0.00,WeatherDisplay:10.37,2013-08-06 21:18:00,
2013-08-06 17:23:00,87.4,78.5,29.91,East,90,1.9,2.3,75,0.00,BKN,,0.00,WeatherDisplay:10.37,2013-08-06 21:23:00,
2013-08-06 17:28:00,86.9,78.4,29.91,East,90,4.2,4.2,76,0.00,BKN,,0.00,WeatherDisplay:10.37,2013-08-06 21:28:00,
2013-08-06 17:33:00,86.9,78.0,29.91,East,90,0.0,6.9,75,0.00,BKN,,0.00,WeatherDisplay:10.37,2013-08-06 21:33:00,
2013-08-06 17:38:00,86.7,78.2,29.90,NE,45,0.2,2.3,76,0.00,BKN,,0.00,WeatherDisplay:10.37,2013-08-06 21:38:00,
2013-08-06 17:43:00,86.7,77.8,29.90,NE,45,4.0,8.1,75,0.00,BKN,,0.00,WeatherDisplay:10.37,2013-08-06 21:43:00,
2013-08-06 17:48:00,86.5,78.1,29.89,North,0,4.4,4.6,76,0.00,BKN,,0.00,WeatherDisplay:10.37,2013-08-06 21:48:00,
2013-08-06 17:53:00,86.2,78.1,29.89,NE,45,0.0,4.6,77,0.00,BKN,,0.00,WeatherDisplay:10.37,2013-08-06 21:53:00,
2013-08-06 17:58:00,86.2,78.5,29.90,East,90,0.0,2.3,78,0.00,BKN,,0.00,WeatherDisplay:10.37,2013-08-06 21:58:00,
2013-08-06 18:03:00,85.8,78.2,29.90,East,90,2.5,2.8,78,0.00,BKN,,0.00,WeatherDisplay:10.37,2013-08-06 22:03:00,
2013-08-06 18:08:00,85.5,77.8,29.91,East,90,3.3,5.8,78,0.00,BKN,,0.00,WeatherDisplay:10.37,2013-08-06 22:08:00,
2013-08-06 18:13:00,85.1,77.8,29.92,NE,45,0.0,8.1,79,0.00,BKN,,0.00,WeatherDisplay:10.37,2013-08-06 22:13:00,
2013-08-06 18:18:00,84.9,77.7,29.92,East,90,0.8,2.8,79,0.00,BKN,,0.00,WeatherDisplay:10.37,2013-08-06 22:18:00,
2013-08-06 18:23:00,84.9,77.7,29.92,NE,45,0.9,2.3,79,0.00,BKN,,0.00,WeatherDisplay:10.37,2013-08-06 22:23:00,
2013-08-06 18:28:00,84.9,77.3,29.91,East,90,0.1,4.6,78,0.00,BKN,,0.00,WeatherDisplay:10.37,2013-08-06 22:28:00,
2013-08-06 18:33:00,84.9,77.3,29.91,East,90,0.8,2.8,78,0.00,BKN,,0.00,WeatherDisplay:10.37,2013-08-06 22:33:00,
2013-08-06 18:38:00,84.7,77.5,29.91,NE,45,1.7,5.8,79,0.00,BKN,,0.00,WeatherDisplay:10.37,2013-08-06 22:38:00,
2013-08-06 18:43:00,84.6,77.3,29.91,NE,45,0.0,2.3,79,0.00,BKN,,0.00,WeatherDisplay:10.37,2013-08-06 22:43:00,
2013-08-06 18:48:00,84.6,77.3,29.91,East,90,0.1,1.2,79,0.00,BKN,,0.00,WeatherDisplay:10.37,2013-08-06 22:48:00,
2013-08-06 18:53:00,84.4,77.5,29.91,NE,45,1.0,2.3,80,0.00,BKN,,0.00,WeatherDisplay:10.37,2013-08-06 22:53:00,
2013-08-06 18:58:00,84.0,77.2,29.92,NE,45,2.1,5.8,80,0.00,BKN,,0.00,WeatherDisplay:10.37,2013-08-06 22:58:00,
2013-08-06 19:03:00,84.2,77.4,29.92,NE,45,2.7,4.6,80,0.00,BKN,,0.00,WeatherDisplay:10.37,2013-08-06 23:03:00,
2013-08-06 19:08:00,84.0,77.2,29.91,NE,45,0.3,2.8,80,0.00,BKN,,0.00,WeatherDisplay:10.37,2013-08-06 23:08:00,
2013-08-06 19:13:00,84.0,77.2,29.91,NE,45,3.6,3.6,80,0.00,BKN,,0.00,WeatherDisplay:10.37,2013-08-06 23:13:00,
2013-08-06 19:18:00,83.8,77.4,29.91,NE,45,3.6,6.9,81,0.00,BKN,,0.00,WeatherDisplay:10.37,2013-08-06 23:18:00,
2013-08-06 19:23:00,83.7,77.2,29.91,East,90,2.8,2.8,81,0.00,BKN,,0.00,WeatherDisplay:10.37,2013-08-06 23:23:00,
2013-08-06 19:28:00,83.7,77.6,29.91,NE,45,1.2,4.6,82,0.00,BKN,,0.00,WeatherDisplay:10.37,2013-08-06 23:28:00,
2013-08-06 19:33:00,83.5,77.4,29.91,East,90,2.0,4.6,82,0.00,BKN,,0.00,WeatherDisplay:10.37,2013-08-06 23:33:00,
2013-08-06 19:38:00,83.3,77.2,29.92,SE,135,1.6,5.6,82,0.00,BKN,,0.00,WeatherDisplay:10.37,2013-08-06 23:38:00,
2013-08-06 19:43:00,83.3,77.2,29.92,NE,45,1.3,5.8,82,0.00,BKN,,0.00,WeatherDisplay:10.37,2013-08-06 23:43:00,
2013-08-06 19:48:00,83.1,77.1,29.92,NE,45,0.3,2.8,82,0.00,BKN,,0.00,WeatherDisplay:10.37,2013-08-06 23:48:00,
2013-08-06 19:53:00,82.9,77.2,29.92,NE,45,1.0,2.3,83,0.00,BKN,,0.00,WeatherDisplay:10.37,2013-08-06 23:53:00,
2013-08-06 19:58:00,82.9,77.2,29.92,East,90,0.7,6.9,83,0.00,BKN,,0.00,WeatherDisplay:10.37,2013-08-06 23:58:00,
2013-08-06 20:03:00,82.6,77.3,29.92,NE,45,0.0,2.3,84,0.00,BKN,,0.00,WeatherDisplay:10.37,2013-08-07 00:03:00,
2013-08-06 20:08:00,82.6,77.3,29.93,East,90,0.8,2.8,84,0.00,BKN,,0.00,WeatherDisplay:10.37,2013-08-07 00:08:00,
2013-08-06 20:13:00,82.6,77.3,29.92,NE,45,1.2,2.3,84,0.00,BKN,,0.00,WeatherDisplay:10.37,2013-08-07 00:13:00,
2013-08-06 20:18:00,82.2,76.9,29.93,NE,45,0.1,1.2,84,0.00,BKN,,0.00,WeatherDisplay:10.37,2013-08-07 00:18:00,
2013-08-06 20:23:00,82.0,77.1,29.93,NE,45,1.4,2.8,85,0.00,BKN,,0.00,WeatherDisplay:10.37,2013-08-07 00:23:00,
2013-08-06 20:28:00,82.0,77.1,29.93,NE,45,2.1,2.8,85,0.00,BKN,,0.00,WeatherDisplay:10.37,2013-08-07 00:28:00,
2013-08-06 20:33:00,82.0,77.1,29.93,NE,45,1.3,2.3,85,0.00,BKN,,0.00,WeatherDisplay:10.37,2013-08-07 00:33:00,
2013-08-06 20:38:00,82.0,77.1,29.94,NE,45,2.2,2.3,85,0.00,BKN,,0.00,WeatherDisplay:10.37,2013-08-07 00:38:00,
2013-08-06 20:43:00,82.0,77.1,29.94,NE,45,0.0,4.6,85,0.00,BKN,,0.00,WeatherDisplay:10.37,2013-08-07 00:43:00,
2013-08-06 20:48:00,82.0,77.4,29.94,NE,45,0.5,4.6,86,0.00,BKN,,0.00,WeatherDisplay:10.37,2013-08-07 00:48:00,
2013-08-06 20:53:00,81.7,77.1,29.94,NE,45,2.1,5.8,86,0.00,BKN,,0.00,WeatherDisplay:10.37,2013-08-07 00:53:00,
2013-08-06 20:58:00,81.7,77.1,29.93,East,90,3.1,4.6,86,0.00,BKN,,0.00,WeatherDisplay:10.37,2013-08-07 00:58:00,
2013-08-06 21:03:00,81.7,77.1,29.94,NE,45,0.8,4.6,86,0.00,BKN,,0.00,WeatherDisplay:10.37,2013-08-07 01:03:00,
2013-08-06 21:08:00,81.5,76.9,29.94,SE,135,0.0,0.0,86,0.00,BKN,,0.00,WeatherDisplay:10.37,2013-08-07 01:08:00,
2013-08-06 21:13:00,81.5,76.9,29.94,NE,45,0.0,0.0,86,0.00,BKN,,0.00,WeatherDisplay:10.37,2013-08-07 01:13:00,
2013-08-06 21:18:00,81.3,76.7,29.94,East,90,1.4,5.8,86,0.00,BKN,,0.00,WeatherDisplay:10.37,2013-08-07 01:18:00,
2013-08-06 21:23:00,81.3,76.7,29.94,NE,45,0.0,4.6,86,0.00,BKN,,0.00,WeatherDisplay:10.37,2013-08-07 01:23:00,
2013-08-06 21:28:00,81.3,77.1,29.94,East,90,0.0,2.8,87,0.00,BKN,,0.00,WeatherDisplay:10.37,2013-08-07 01:28:00,
2013-08-06 21:33:00,81.3,77.1,29.94,NE,45,0.9,2.3,87,0.00,BKN,,0.00,WeatherDisplay:10.37,2013-08-07 01:33:00,
2013-08-06 21:38:00,81.3,77.1,29.95,SE,135,0.9,4.6,87,0.00,BKN,,0.00,WeatherDisplay:10.37,2013-08-07 01:38:00,
2013-08-06 21:43:00,81.3,77.1,29.95,NE,45,3.9,3.9,87,0.00,BKN,,0.00,WeatherDisplay:10.37,2013-08-07 01:43:00,
2013-08-06 21:48:00,81.3,77.1,29.95,NE,45,0.1,5.8,87,0.00,BKN,,0.00,WeatherDisplay:10.37,2013-08-07 01:48:00,
2013-08-06 21:53:00,81.3,77.4,29.95,NE,45,0.2,2.3,88,0.00,BKN,,0.00,WeatherDisplay:10.37,2013-08-07 01:53:00,
2013-08-06 21:58:00,81.3,77.4,29.95,NE,45,0.3,2.8,88,0.00,BKN,,0.00,WeatherDisplay:10.37,2013-08-07 01:58:00,
2013-08-06 22:03:00,81.3,77.4,29.95,East,90,1.2,2.8,88,0.00,BKN,,0.00,WeatherDisplay:10.37,2013-08-07 02:03:00,
2013-08-06 22:08:00,81.3,77.4,29.95,NE,45,0.0,2.3,88,0.00,BKN,,0.00,WeatherDisplay:10.37,2013-08-07 02:08:00,
2013-08-06 22:13:00,81.3,77.4,29.96,NE,45,0.0,0.0,88,0.00,OVC,,0.00,WeatherDisplay:10.37,2013-08-07 02:13:00,
2013-08-06 22:18:00,81.3,77.4,29.96,NE,45,0.0,0.0,88,0.00,OVC,,0.00,WeatherDisplay:10.37,2013-08-07 02:18:00,
2013-08-06 22:23:00,81.3,77.4,29.96,NE,45,0.0,0.0,88,0.00,OVC,,0.00,WeatherDisplay:10.37,2013-08-07 02:23:00,
2013-08-06 22:28:00,81.3,77.8,29.96,NE,45,0.3,2.8,89,0.00,OVC,,0.00,WeatherDisplay:10.37,2013-08-07 02:28:00,
2013-08-06 22:33:00,81.3,77.8,29.96,NE,45,1.2,2.8,89,0.00,OVC,,0.00,WeatherDisplay:10.37,2013-08-07 02:33:00,
2013-08-06 22:38:00,81.3,77.8,29.96,East,90,1.3,4.6,89,0.00,OVC,,0.00,WeatherDisplay:10.37,2013-08-07 02:38:00,
2013-08-06 22:43:00,81.3,77.8,29.96,NE,45,0.1,4.6,89,0.00,OVC,,0.00,WeatherDisplay:10.37,2013-08-07 02:43:00,
2013-08-06 22:48:00,81.1,77.6,29.96,NE,45,0.0,2.3,89,0.00,OVC,,0.00,WeatherDisplay:10.37,2013-08-07 02:48:00,
2013-08-06 22:53:00,81.1,77.6,29.96,NE,45,0.0,0.0,89,0.00,OVC,,0.00,WeatherDisplay:10.37,2013-08-07 02:53:00,
2013-08-06 22:58:00,81.0,77.7,29.96,NE,45,0.0,0.0,90,0.00,OVC,,0.00,WeatherDisplay:10.37,2013-08-07 02:58:00,
2013-08-06 23:03:00,80.8,77.6,29.96,NE,45,0.4,2.8,90,0.00,OVC,,0.00,WeatherDisplay:10.37,2013-08-07 03:03:00,
2013-08-06 23:08:00,80.8,77.6,29.97,NE,45,2.7,2.7,90,0.00,OVC,,0.00,WeatherDisplay:10.37,2013-08-07 03:08:00,
2013-08-06 23:13:00,80.8,77.6,29.97,NE,45,0.0,1.2,90,0.00,BKN,,0.00,WeatherDisplay:10.37,2013-08-07 03:13:00,
2013-08-06 23:18:00,80.8,77.9,29.97,NE,45,0.0,0.0,91,0.00,BKN,,0.00,WeatherDisplay:10.37,2013-08-07 03:18:00,
2013-08-06 23:23:00,80.4,77.5,29.96,NE,45,0.5,2.3,91,0.00,BKN,,0.00,WeatherDisplay:10.37,2013-08-07 03:23:00,
2013-08-06 23:28:00,80.6,77.7,29.96,NE,45,4.2,4.2,91,0.00,BKN,,0.00,WeatherDisplay:10.37,2013-08-07 03:28:00,
2013-08-06 23:33:00,80.8,77.9,29.96,East,90,0.8,4.6,91,0.00,BKN,,0.00,WeatherDisplay:10.37,2013-08-07 03:33:00,
2013-08-06 23:38:00,80.8,77.6,29.96,NE,45,1.0,2.8,90,0.00,BKN,,0.00,WeatherDisplay:10.37,2013-08-07 03:38:00,
2013-08-06 23:43:00,81.0,77.7,29.97,NE,45,0.1,4.6,90,0.00,BKN,,0.00,WeatherDisplay:10.37,2013-08-07 03:43:00,
2013-08-06 23:48:00,81.1,77.9,29.97,NE,45,0.0,2.3,90,0.00,BKN,,0.00,WeatherDisplay:10.37,2013-08-07 03:48:00,
2013-08-06 23:53:00,81.1,77.9,29.96,NE,45,0.8,2.8,90,0.00,BKN,,0.00,WeatherDisplay:10.37,2013-08-07 03:53:00,
2013-08-06 23:58:00,81.0,77.7,29.96,East,90,0.0,8.1,90,0.00,BKN,,0.00,WeatherDisplay:10.37,2013-08-07 03:58:00,